Strona główna
METAR-TAF:

METAR-TAF

Lotnisko :

Port lotniczy Tennant Creek

Tennant Creek, Australia

Szerokość geograficzna: 19-38-04S, Długość geograficzna: 134-11-00E, wysokość: 377 m

Aktualna obserwacja pogody

Raport powstał 21 minut temu, godzina 12:00 UTC
Wiatr 5 kt od wschód
Temperatura 18°C
Wilgotność 19%
Ciśnienie 1018 hPa
Widzialność 10 km lub więcej

METAR: YTNK 241200Z AUTO 10005KT 9999 // NCD 18/M06 Q1018

czas: 21:51 (12:21 UTC)

Prognoza

Raport powstał 5 godziny i 48 minut temu, godzina 06:33 UTC
Prognoza ważna od 24 godzina 08 UTC do 24 godzina 20 UTC
Wiatr 8 kt od wschodnio-południowy wschód
Widzialność 10 km lub więcej
Brak chmur poniżej 1500 m i brak chmur cumulonimbus

TAF: YTNK 240633Z 2408/2420 11008KT CAVOK

Obserwacja i prognoza pogody dla ponad 4000 lotnisk (raport METAR i TAF).

Dostępne stacje oznaczono żółtymi i czerwonymi punktami na mapie.

Najedź kursorem aby zobaczyć nazwę stacji.

Kliknij aby zobaczyć obserwacje i prognozy pogody.

Aby zmienić mapę: kliknij na zielony przycisk z czarnym krzyżykiem, aby powiększyć; na zielony przycisk z myślnikiem, aby pomniejszyć; na zielone strzałki, aby przejść do map sąsiednich.


METAR-TAF: